sensor_id;sensor_type;location;lat;lon;timestamp;P1;durP1;ratioP1;P2;durP2;ratioP2
45356;SDS011;31092;51.924;21.448;2024-02-15T00:02:02;6.25;;;3.30;;
45356;SDS011;31092;51.924;21.448;2024-02-15T00:04:27;12.05;;;4.25;;
45356;SDS011;31092;51.924;21.448;2024-02-15T00:06:53;9.85;;;3.85;;
45356;SDS011;31092;51.924;21.448;2024-02-15T00:09:19;8.23;;;4.35;;
45356;SDS011;31092;51.924;21.448;2024-02-15T00:11:44;6.63;;;3.40;;
45356;SDS011;31092;51.924;21.448;2024-02-15T00:14:10;8.27;;;4.47;;
45356;SDS011;31092;51.924;21.448;2024-02-15T00:16:37;11.30;;;4.65;;
45356;SDS011;31092;51.924;21.448;2024-02-15T00:19:02;5.82;;;3.70;;
45356;SDS011;31092;51.924;21.448;2024-02-15T00:21:28;10.25;;;4.25;;
45356;SDS011;31092;51.924;21.448;2024-02-15T00:23:53;5.88;;;4.18;;
45356;SDS011;31092;51.924;21.448;2024-02-15T00:26:21;8.98;;;4.35;;
45356;SDS011;31092;51.924;21.448;2024-02-15T00:28:47;7.53;;;3.60;;
45356;SDS011;31092;51.924;21.448;2024-02-15T00:31:14;8.88;;;4.28;;
45356;SDS011;31092;51.924;21.448;2024-02-15T00:33:39;7.03;;;4.18;;
45356;SDS011;31092;51.924;21.448;2024-02-15T00:36:05;8.18;;;3.80;;
45356;SDS011;31092;51.924;21.448;2024-02-15T00:38:34;6.85;;;3.80;;
45356;SDS011;31092;51.924;21.448;2024-02-15T00:41:00;6.88;;;4.05;;
45356;SDS011;31092;51.924;21.448;2024-02-15T00:43:28;6.85;;;4.47;;
45356;SDS011;31092;51.924;21.448;2024-02-15T00:45:54;9.15;;;4.57;;
45356;SDS011;31092;51.924;21.448;2024-02-15T00:48:20;9.48;;;3.45;;
45356;SDS011;31092;51.924;21.448;2024-02-15T00:50:45;9.90;;;4.22;;
45356;SDS011;31092;51.924;21.448;2024-02-15T00:53:11;10.57;;;4.38;;
45356;SDS011;31092;51.924;21.448;2024-02-15T00:55:36;7.30;;;3.10;;
45356;SDS011;31092;51.924;21.448;2024-02-15T00:58:02;7.18;;;3.63;;
45356;SDS011;31092;51.924;21.448;2024-02-15T01:00:28;8.20;;;4.30;;
45356;SDS011;31092;51.924;21.448;2024-02-15T01:02:54;6.28;;;3.80;;
45356;SDS011;31092;51.924;21.448;2024-02-15T01:05:21;7.13;;;4.65;;
45356;SDS011;31092;51.924;21.448;2024-02-15T01:07:47;4.65;;;3.40;;
45356;SDS011;31092;51.924;21.448;2024-02-15T01:10:14;6.35;;;3.90;;
45356;SDS011;31092;51.924;21.448;2024-02-15T01:12:40;8.15;;;4.05;;
45356;SDS011;31092;51.924;21.448;2024-02-15T01:15:06;7.55;;;4.80;;
45356;SDS011;31092;51.924;21.448;2024-02-15T01:17:31;6.03;;;3.88;;
45356;SDS011;31092;51.924;21.448;2024-02-15T01:19:57;10.60;;;3.97;;
45356;SDS011;31092;51.924;21.448;2024-02-15T01:22:22;8.60;;;4.65;;
45356;SDS011;31092;51.924;21.448;2024-02-15T01:24:50;12.13;;;4.38;;
45356;SDS011;31092;51.924;21.448;2024-02-15T01:27:15;5.63;;;3.63;;
45356;SDS011;31092;51.924;21.448;2024-02-15T01:29:42;8.65;;;4.32;;
45356;SDS011;31092;51.924;21.448;2024-02-15T01:35:29;5.18;;;3.95;;
45356;SDS011;31092;51.924;21.448;2024-02-15T01:37:54;8.05;;;4.13;;
45356;SDS011;31092;51.924;21.448;2024-02-15T01:40:20;13.52;;;4.38;;
45356;SDS011;31092;51.924;21.448;2024-02-15T01:42:46;6.13;;;3.92;;
45356;SDS011;31092;51.924;21.448;2024-02-15T01:45:11;8.75;;;3.88;;
45356;SDS011;31092;51.924;21.448;2024-02-15T01:47:37;7.20;;;3.67;;
45356;SDS011;31092;51.924;21.448;2024-02-15T01:50:05;9.10;;;3.85;;
45356;SDS011;31092;51.924;21.448;2024-02-15T01:52:32;7.13;;;3.92;;
45356;SDS011;31092;51.924;21.448;2024-02-15T01:54:58;10.73;;;4.53;;
45356;SDS011;31092;51.924;21.448;2024-02-15T01:57:26;9.68;;;4.18;;
45356;SDS011;31092;51.924;21.448;2024-02-15T01:59:52;6.10;;;4.57;;
45356;SDS011;31092;51.924;21.448;2024-02-15T02:02:18;7.75;;;4.72;;
45356;SDS011;31092;51.924;21.448;2024-02-15T02:04:45;11.32;;;4.70;;
45356;SDS011;31092;51.924;21.448;2024-02-15T02:07:11;9.05;;;3.83;;
45356;SDS011;31092;51.924;21.448;2024-02-15T02:09:36;9.70;;;4.13;;
45356;SDS011;31092;51.924;21.448;2024-02-15T02:12:02;5.13;;;3.55;;
45356;SDS011;31092;51.924;21.448;2024-02-15T02:14:28;9.23;;;4.43;;
45356;SDS011;31092;51.924;21.448;2024-02-15T02:16:54;8.18;;;3.72;;
45356;SDS011;31092;51.924;21.448;2024-02-15T02:19:20;7.93;;;3.58;;
45356;SDS011;31092;51.924;21.448;2024-02-15T02:21:46;11.98;;;4.47;;
45356;SDS011;31092;51.924;21.448;2024-02-15T02:24:17;7.70;;;4.55;;
45356;SDS011;31092;51.924;21.448;2024-02-15T02:26:47;8.60;;;4.18;;
45356;SDS011;31092;51.924;21.448;2024-02-15T02:29:14;12.40;;;5.35;;
45356;SDS011;31092;51.924;21.448;2024-02-15T02:31:41;6.40;;;4.70;;
45356;SDS011;31092;51.924;21.448;2024-02-15T02:34:07;7.25;;;3.78;;
45356;SDS011;31092;51.924;21.448;2024-02-15T02:36:33;10.23;;;4.50;;
45356;SDS011;31092;51.924;21.448;2024-02-15T02:38:59;7.97;;;3.80;;
45356;SDS011;31092;51.924;21.448;2024-02-15T02:41:28;6.80;;;3.90;;
45356;SDS011;31092;51.924;21.448;2024-02-15T02:43:57;8.32;;;3.97;;
45356;SDS011;31092;51.924;21.448;2024-02-15T02:46:22;8.00;;;4.30;;
45356;SDS011;31092;51.924;21.448;2024-02-15T02:48:55;10.20;;;4.03;;
45356;SDS011;31092;51.924;21.448;2024-02-15T02:51:32;9.10;;;3.97;;
45356;SDS011;31092;51.924;21.448;2024-02-15T02:53:58;11.05;;;4.97;;
45356;SDS011;31092;51.924;21.448;2024-02-15T02:56:23;10.88;;;4.72;;
45356;SDS011;31092;51.924;21.448;2024-02-15T02:58:49;10.43;;;3.72;;
45356;SDS011;31092;51.924;21.448;2024-02-15T03:01:14;7.97;;;4.15;;
45356;SDS011;31092;51.924;21.448;2024-02-15T03:03:41;11.48;;;4.90;;
45356;SDS011;31092;51.924;21.448;2024-02-15T03:06:07;12.27;;;4.78;;
45356;SDS011;31092;51.924;21.448;2024-02-15T03:08:33;10.38;;;4.38;;
45356;SDS011;31092;51.924;21.448;2024-02-15T03:10:59;8.00;;;4.53;;
45356;SDS011;31092;51.924;21.448;2024-02-15T03:13:24;6.00;;;4.38;;
45356;SDS011;31092;51.924;21.448;2024-02-15T03:15:50;7.18;;;4.13;;
45356;SDS011;31092;51.924;21.448;2024-02-15T03:18:16;7.57;;;4.70;;
45356;SDS011;31092;51.924;21.448;2024-02-15T03:20:42;8.43;;;4.57;;
45356;SDS011;31092;51.924;21.448;2024-02-15T03:23:08;10.95;;;5.22;;
45356;SDS011;31092;51.924;21.448;2024-02-15T03:25:34;9.25;;;4.50;;
45356;SDS011;31092;51.924;21.448;2024-02-15T03:28:00;6.10;;;3.85;;
45356;SDS011;31092;51.924;21.448;2024-02-15T03:30:30;9.68;;;4.63;;
45356;SDS011;31092;51.924;21.448;2024-02-15T03:32:56;4.90;;;3.45;;
45356;SDS011;31092;51.924;21.448;2024-02-15T03:35:24;8.27;;;4.97;;
45356;SDS011;31092;51.924;21.448;2024-02-15T03:37:51;11.30;;;4.93;;
45356;SDS011;31092;51.924;21.448;2024-02-15T03:40:18;8.27;;;5.40;;
45356;SDS011;31092;51.924;21.448;2024-02-15T03:42:44;7.85;;;4.45;;
45356;SDS011;31092;51.924;21.448;2024-02-15T03:45:10;13.88;;;3.85;;
45356;SDS011;31092;51.924;21.448;2024-02-15T03:47:39;6.50;;;4.05;;
45356;SDS011;31092;51.924;21.448;2024-02-15T03:50:05;8.52;;;4.38;;
45356;SDS011;31092;51.924;21.448;2024-02-15T03:52:33;9.95;;;4.88;;
45356;SDS011;31092;51.924;21.448;2024-02-15T03:54:58;10.40;;;5.72;;
45356;SDS011;31092;51.924;21.448;2024-02-15T03:57:25;6.22;;;4.05;;
45356;SDS011;31092;51.924;21.448;2024-02-15T03:59:51;9.82;;;5.45;;
45356;SDS011;31092;51.924;21.448;2024-02-15T04:02:20;8.52;;;4.47;;
45356;SDS011;31092;51.924;21.448;2024-02-15T04:04:48;14.93;;;5.53;;
45356;SDS011;31092;51.924;21.448;2024-02-15T04:07:19;8.65;;;3.97;;
45356;SDS011;31092;51.924;21.448;2024-02-15T04:09:46;7.55;;;4.03;;
45356;SDS011;31092;51.924;21.448;2024-02-15T04:12:12;10.82;;;4.68;;
45356;SDS011;31092;51.924;21.448;2024-02-15T04:14:39;7.10;;;4.40;;
45356;SDS011;31092;51.924;21.448;2024-02-15T04:17:05;11.55;;;4.90;;
45356;SDS011;31092;51.924;21.448;2024-02-15T04:19:31;8.63;;;4.63;;
45356;SDS011;31092;51.924;21.448;2024-02-15T04:21:57;10.90;;;4.72;;
45356;SDS011;31092;51.924;21.448;2024-02-15T04:24:24;10.18;;;5.25;;
45356;SDS011;31092;51.924;21.448;2024-02-15T04:26:50;8.00;;;4.88;;
45356;SDS011;31092;51.924;21.448;2024-02-15T04:29:16;7.85;;;4.60;;
45356;SDS011;31092;51.924;21.448;2024-02-15T04:31:46;8.45;;;4.20;;
45356;SDS011;31092;51.924;21.448;2024-02-15T04:34:17;9.00;;;4.90;;
45356;SDS011;31092;51.924;21.448;2024-02-15T04:36:46;9.85;;;5.03;;
45356;SDS011;31092;51.924;21.448;2024-02-15T04:39:18;8.65;;;4.13;;
45356;SDS011;31092;51.924;21.448;2024-02-15T04:44:18;7.07;;;4.22;;
45356;SDS011;31092;51.924;21.448;2024-02-15T04:46:52;10.13;;;4.47;;
45356;SDS011;31092;51.924;21.448;2024-02-15T04:49:18;8.90;;;3.97;;
45356;SDS011;31092;51.924;21.448;2024-02-15T04:51:44;13.80;;;4.57;;
45356;SDS011;31092;51.924;21.448;2024-02-15T04:54:10;9.82;;;4.47;;
45356;SDS011;31092;51.924;21.448;2024-02-15T04:56:39;7.60;;;3.67;;
45356;SDS011;31092;51.924;21.448;2024-02-15T04:59:05;7.53;;;4.60;;
45356;SDS011;31092;51.924;21.448;2024-02-15T05:01:40;6.80;;;4.05;;
45356;SDS011;31092;51.924;21.448;2024-02-15T05:04:11;10.75;;;4.03;;
45356;SDS011;31092;51.924;21.448;2024-02-15T05:06:38;10.73;;;4.45;;
45356;SDS011;31092;51.924;21.448;2024-02-15T05:09:05;8.75;;;4.07;;
45356;SDS011;31092;51.924;21.448;2024-02-15T05:11:36;6.03;;;3.78;;
45356;SDS011;31092;51.924;21.448;2024-02-15T05:14:03;6.28;;;4.18;;
45356;SDS011;31092;51.924;21.448;2024-02-15T05:16:32;9.98;;;4.65;;
45356;SDS011;31092;51.924;21.448;2024-02-15T05:19:00;7.88;;;3.95;;
45356;SDS011;31092;51.924;21.448;2024-02-15T05:21:27;10.52;;;5.25;;
45356;SDS011;31092;51.924;21.448;2024-02-15T05:23:53;6.32;;;3.65;;
45356;SDS011;31092;51.924;21.448;2024-02-15T05:26:20;7.20;;;4.35;;
45356;SDS011;31092;51.924;21.448;2024-02-15T05:28:48;8.60;;;4.47;;
45356;SDS011;31092;51.924;21.448;2024-02-15T05:31:18;8.82;;;4.00;;
45356;SDS011;31092;51.924;21.448;2024-02-15T05:33:50;7.32;;;3.97;;
45356;SDS011;31092;51.924;21.448;2024-02-15T05:36:16;7.07;;;3.55;;
45356;SDS011;31092;51.924;21.448;2024-02-15T05:38:46;11.98;;;3.92;;
45356;SDS011;31092;51.924;21.448;2024-02-15T05:41:12;5.70;;;3.58;;
45356;SDS011;31092;51.924;21.448;2024-02-15T05:43:39;7.15;;;4.32;;
45356;SDS011;31092;51.924;21.448;2024-02-15T05:46:07;8.05;;;3.95;;
45356;SDS011;31092;51.924;21.448;2024-02-15T05:48:33;9.65;;;4.40;;
45356;SDS011;31092;51.924;21.448;2024-02-15T05:51:06;6.30;;;4.18;;
45356;SDS011;31092;51.924;21.448;2024-02-15T05:56:02;7.32;;;4.35;;
45356;SDS011;31092;51.924;21.448;2024-02-15T05:58:35;8.30;;;3.80;;
45356;SDS011;31092;51.924;21.448;2024-02-15T06:01:02;8.13;;;3.92;;
45356;SDS011;31092;51.924;21.448;2024-02-15T06:03:33;11.07;;;4.13;;
45356;SDS011;31092;51.924;21.448;2024-02-15T06:06:02;11.02;;;4.20;;
45356;SDS011;31092;51.924;21.448;2024-02-15T06:08:34;10.30;;;4.10;;
45356;SDS011;31092;51.924;21.448;2024-02-15T06:11:01;11.00;;;4.70;;
45356;SDS011;31092;51.924;21.448;2024-02-15T06:13:27;9.15;;;4.47;;
45356;SDS011;31092;51.924;21.448;2024-02-15T06:15:53;10.75;;;5.20;;
45356;SDS011;31092;51.924;21.448;2024-02-15T06:18:19;4.57;;;3.30;;
45356;SDS011;31092;51.924;21.448;2024-02-15T06:23:16;9.93;;;3.78;;
45356;SDS011;31092;51.924;21.448;2024-02-15T06:25:42;8.95;;;4.80;;
45356;SDS011;31092;51.924;21.448;2024-02-15T06:28:08;6.85;;;3.60;;
45356;SDS011;31092;51.924;21.448;2024-02-15T06:30:53;8.95;;;4.93;;
45356;SDS011;31092;51.924;21.448;2024-02-15T06:33:37;7.15;;;3.75;;
45356;SDS011;31092;51.924;21.448;2024-02-15T06:36:20;9.30;;;4.85;;
45356;SDS011;31092;51.924;21.448;2024-02-15T06:39:04;12.35;;;4.70;;
45356;SDS011;31092;51.924;21.448;2024-02-15T06:41:48;9.75;;;5.00;;
45356;SDS011;31092;51.924;21.448;2024-02-15T06:44:14;11.13;;;5.03;;
45356;SDS011;31092;51.924;21.448;2024-02-15T06:46:39;15.40;;;5.07;;
45356;SDS011;31092;51.924;21.448;2024-02-15T06:49:06;11.68;;;5.35;;
45356;SDS011;31092;51.924;21.448;2024-02-15T06:51:32;9.38;;;5.07;;
45356;SDS011;31092;51.924;21.448;2024-02-15T06:53:57;8.10;;;4.85;;
45356;SDS011;31092;51.924;21.448;2024-02-15T06:56:23;9.13;;;4.80;;
45356;SDS011;31092;51.924;21.448;2024-02-15T06:58:49;9.55;;;5.28;;
45356;SDS011;31092;51.924;21.448;2024-02-15T07:01:15;14.63;;;4.95;;
45356;SDS011;31092;51.924;21.448;2024-02-15T07:03:42;9.35;;;5.10;;
45356;SDS011;31092;51.924;21.448;2024-02-15T07:06:10;8.93;;;5.07;;
45356;SDS011;31092;51.924;21.448;2024-02-15T07:08:36;11.90;;;6.13;;
45356;SDS011;31092;51.924;21.448;2024-02-15T07:11:01;8.45;;;5.28;;
45356;SDS011;31092;51.924;21.448;2024-02-15T07:13:30;10.75;;;5.57;;
45356;SDS011;31092;51.924;21.448;2024-02-15T07:15:55;12.10;;;5.18;;
45356;SDS011;31092;51.924;21.448;2024-02-15T07:18:21;12.23;;;5.55;;
45356;SDS011;31092;51.924;21.448;2024-02-15T07:20:47;8.43;;;5.18;;
45356;SDS011;31092;51.924;21.448;2024-02-15T07:23:13;12.73;;;5.90;;
45356;SDS011;31092;51.924;21.448;2024-02-15T07:25:39;12.35;;;6.13;;
45356;SDS011;31092;51.924;21.448;2024-02-15T07:28:06;10.48;;;5.97;;
45356;SDS011;31092;51.924;21.448;2024-02-15T07:30:34;8.30;;;5.35;;
45356;SDS011;31092;51.924;21.448;2024-02-15T07:32:59;12.80;;;6.13;;
45356;SDS011;31092;51.924;21.448;2024-02-15T07:35:25;11.77;;;5.93;;
45356;SDS011;31092;51.924;21.448;2024-02-15T07:37:51;13.50;;;6.13;;
45356;SDS011;31092;51.924;21.448;2024-02-15T07:40:18;11.85;;;5.95;;
45356;SDS011;31092;51.924;21.448;2024-02-15T07:42:47;11.68;;;5.38;;
45356;SDS011;31092;51.924;21.448;2024-02-15T07:45:13;14.15;;;6.18;;
45356;SDS011;31092;51.924;21.448;2024-02-15T07:47:38;12.20;;;6.40;;
45356;SDS011;31092;51.924;21.448;2024-02-15T07:50:04;13.95;;;6.40;;
45356;SDS011;31092;51.924;21.448;2024-02-15T07:52:30;14.98;;;6.38;;
45356;SDS011;31092;51.924;21.448;2024-02-15T07:54:56;11.00;;;5.88;;
45356;SDS011;31092;51.924;21.448;2024-02-15T07:57:21;10.15;;;6.07;;
45356;SDS011;31092;51.924;21.448;2024-02-15T07:59:48;14.63;;;6.70;;
45356;SDS011;31092;51.924;21.448;2024-02-15T08:02:14;13.38;;;6.35;;
45356;SDS011;31092;51.924;21.448;2024-02-15T08:04:43;9.68;;;6.43;;
45356;SDS011;31092;51.924;21.448;2024-02-15T08:07:09;16.67;;;7.07;;
45356;SDS011;31092;51.924;21.448;2024-02-15T08:09:39;16.20;;;6.63;;
45356;SDS011;31092;51.924;21.448;2024-02-15T08:12:05;17.63;;;6.60;;
45356;SDS011;31092;51.924;21.448;2024-02-15T08:14:30;16.52;;;6.75;;
45356;SDS011;31092;51.924;21.448;2024-02-15T08:16:56;15.77;;;5.93;;
45356;SDS011;31092;51.924;21.448;2024-02-15T08:19:22;11.85;;;6.15;;
45356;SDS011;31092;51.924;21.448;2024-02-15T08:21:48;10.68;;;5.63;;
45356;SDS011;31092;51.924;21.448;2024-02-15T08:24:15;12.63;;;6.32;;
45356;SDS011;31092;51.924;21.448;2024-02-15T08:26:42;17.23;;;8.23;;
45356;SDS011;31092;51.924;21.448;2024-02-15T08:29:08;14.27;;;6.90;;
45356;SDS011;31092;51.924;21.448;2024-02-15T08:31:40;11.38;;;5.95;;
45356;SDS011;31092;51.924;21.448;2024-02-15T08:34:06;12.50;;;6.97;;
45356;SDS011;31092;51.924;21.448;2024-02-15T08:36:35;15.10;;;7.53;;
45356;SDS011;31092;51.924;21.448;2024-02-15T08:39:01;13.00;;;6.38;;
45356;SDS011;31092;51.924;21.448;2024-02-15T08:41:26;12.60;;;6.78;;
45356;SDS011;31092;51.924;21.448;2024-02-15T08:43:52;13.38;;;6.90;;
45356;SDS011;31092;51.924;21.448;2024-02-15T08:46:19;16.65;;;7.57;;
45356;SDS011;31092;51.924;21.448;2024-02-15T08:48:45;15.63;;;7.35;;
45356;SDS011;31092;51.924;21.448;2024-02-15T08:51:11;13.55;;;6.25;;
45356;SDS011;31092;51.924;21.448;2024-02-15T08:53:37;13.15;;;7.10;;
45356;SDS011;31092;51.924;21.448;2024-02-15T08:56:03;13.93;;;7.65;;
45356;SDS011;31092;51.924;21.448;2024-02-15T08:58:29;17.15;;;7.65;;
45356;SDS011;31092;51.924;21.448;2024-02-15T09:00:55;12.88;;;6.65;;
45356;SDS011;31092;51.924;21.448;2024-02-15T09:03:21;18.38;;;7.90;;
45356;SDS011;31092;51.924;21.448;2024-02-15T09:05:47;16.92;;;7.93;;
45356;SDS011;31092;51.924;21.448;2024-02-15T09:08:13;11.82;;;6.65;;
45356;SDS011;31092;51.924;21.448;2024-02-15T09:10:39;19.10;;;7.47;;
45356;SDS011;31092;51.924;21.448;2024-02-15T09:13:04;14.20;;;7.32;;
45356;SDS011;31092;51.924;21.448;2024-02-15T09:15:31;13.07;;;7.70;;
45356;SDS011;31092;51.924;21.448;2024-02-15T09:17:57;14.48;;;7.95;;
45356;SDS011;31092;51.924;21.448;2024-02-15T09:20:23;20.45;;;8.75;;
45356;SDS011;31092;51.924;21.448;2024-02-15T09:22:53;16.20;;;8.40;;
45356;SDS011;31092;51.924;21.448;2024-02-15T09:25:20;16.58;;;7.78;;
45356;SDS011;31092;51.924;21.448;2024-02-15T09:27:49;15.00;;;8.10;;
45356;SDS011;31092;51.924;21.448;2024-02-15T09:30:16;18.17;;;8.88;;
45356;SDS011;31092;51.924;21.448;2024-02-15T09:32:42;16.13;;;7.70;;
45356;SDS011;31092;51.924;21.448;2024-02-15T09:35:09;17.85;;;8.30;;
45356;SDS011;31092;51.924;21.448;2024-02-15T09:37:37;17.27;;;8.05;;
45356;SDS011;31092;51.924;21.448;2024-02-15T09:40:14;16.52;;;7.95;;
45356;SDS011;31092;51.924;21.448;2024-02-15T09:42:41;14.45;;;8.13;;
45356;SDS011;31092;51.924;21.448;2024-02-15T09:45:12;15.80;;;8.07;;
45356;SDS011;31092;51.924;21.448;2024-02-15T09:47:40;15.40;;;7.72;;
45356;SDS011;31092;51.924;21.448;2024-02-15T09:50:06;19.92;;;7.97;;
45356;SDS011;31092;51.924;21.448;2024-02-15T09:52:32;16.27;;;7.15;;
45356;SDS011;31092;51.924;21.448;2024-02-15T09:55:02;16.02;;;7.63;;
45356;SDS011;31092;51.924;21.448;2024-02-15T09:57:29;11.95;;;7.40;;
45356;SDS011;31092;51.924;21.448;2024-02-15T09:59:58;13.13;;;7.88;;
45356;SDS011;31092;51.924;21.448;2024-02-15T10:02:25;14.10;;;7.78;;
45356;SDS011;31092;51.924;21.448;2024-02-15T10:04:52;14.73;;;8.27;;
45356;SDS011;31092;51.924;21.448;2024-02-15T10:07:22;17.90;;;8.30;;
45356;SDS011;31092;51.924;21.448;2024-02-15T10:09:48;15.68;;;7.72;;
45356;SDS011;31092;51.924;21.448;2024-02-15T10:12:14;20.45;;;8.73;;
45356;SDS011;31092;51.924;21.448;2024-02-15T10:14:44;19.50;;;8.38;;
45356;SDS011;31092;51.924;21.448;2024-02-15T10:17:14;16.05;;;7.93;;
45356;SDS011;31092;51.924;21.448;2024-02-15T10:19:42;15.45;;;8.73;;
45356;SDS011;31092;51.924;21.448;2024-02-15T10:22:09;14.20;;;8.15;;
45356;SDS011;31092;51.924;21.448;2024-02-15T10:24:36;13.05;;;7.63;;
45356;SDS011;31092;51.924;21.448;2024-02-15T10:27:04;16.13;;;7.93;;
45356;SDS011;31092;51.924;21.448;2024-02-15T10:29:35;15.52;;;7.63;;
45356;SDS011;31092;51.924;21.448;2024-02-15T10:32:02;21.73;;;8.27;;
45356;SDS011;31092;51.924;21.448;2024-02-15T10:34:29;9.60;;;7.30;;
45356;SDS011;31092;51.924;21.448;2024-02-15T10:37:12;16.75;;;8.27;;
45356;SDS011;31092;51.924;21.448;2024-02-15T10:39:39;13.85;;;7.03;;
45356;SDS011;31092;51.924;21.448;2024-02-15T10:42:07;13.75;;;7.80;;
45356;SDS011;31092;51.924;21.448;2024-02-15T10:44:36;12.48;;;7.47;;
45356;SDS011;31092;51.924;21.448;2024-02-15T10:47:03;15.95;;;8.05;;
45356;SDS011;31092;51.924;21.448;2024-02-15T10:49:33;13.18;;;7.22;;
45356;SDS011;31092;51.924;21.448;2024-02-15T10:52:01;19.70;;;10.45;;
45356;SDS011;31092;51.924;21.448;2024-02-15T10:57:20;19.23;;;8.52;;
45356;SDS011;31092;51.924;21.448;2024-02-15T11:02:27;17.20;;;8.10;;
45356;SDS011;31092;51.924;21.448;2024-02-15T11:05:06;18.27;;;8.82;;
45356;SDS011;31092;51.924;21.448;2024-02-15T11:07:37;15.13;;;8.10;;
45356;SDS011;31092;51.924;21.448;2024-02-15T11:10:04;13.63;;;7.97;;
45356;SDS011;31092;51.924;21.448;2024-02-15T11:12:35;15.07;;;8.27;;
45356;SDS011;31092;51.924;21.448;2024-02-15T11:15:02;17.27;;;8.73;;
45356;SDS011;31092;51.924;21.448;2024-02-15T11:20:10;12.93;;;8.02;;
45356;SDS011;31092;51.924;21.448;2024-02-15T11:22:58;15.80;;;8.80;;
45356;SDS011;31092;51.924;21.448;2024-02-15T11:25:34;16.73;;;8.85;;
45356;SDS011;31092;51.924;21.448;2024-02-15T11:31:06;14.57;;;8.45;;
45356;SDS011;31092;51.924;21.448;2024-02-15T11:33:34;15.82;;;9.02;;
45356;SDS011;31092;51.924;21.448;2024-02-15T11:38:36;20.65;;;8.30;;
45356;SDS011;31092;51.924;21.448;2024-02-15T11:41:06;15.40;;;8.73;;
45356;SDS011;31092;51.924;21.448;2024-02-15T11:46:12;14.15;;;8.50;;
45356;SDS011;31092;51.924;21.448;2024-02-15T11:48:38;17.88;;;9.13;;
45356;SDS011;31092;51.924;21.448;2024-02-15T11:51:04;18.48;;;8.35;;
45356;SDS011;31092;51.924;21.448;2024-02-15T11:53:38;15.63;;;9.10;;
45356;SDS011;31092;51.924;21.448;2024-02-15T11:56:04;9.30;;;7.55;;
45356;SDS011;31092;51.924;21.448;2024-02-15T11:58:30;13.60;;;8.00;;
45356;SDS011;31092;51.924;21.448;2024-02-15T12:01:17;23.73;;;10.30;;
45356;SDS011;31092;51.924;21.448;2024-02-15T12:04:02;16.05;;;8.20;;
45356;SDS011;31092;51.924;21.448;2024-02-15T12:06:47;17.17;;;9.07;;
45356;SDS011;31092;51.924;21.448;2024-02-15T12:09:30;23.38;;;8.85;;
45356;SDS011;31092;51.924;21.448;2024-02-15T12:12:14;14.38;;;7.95;;
45356;SDS011;31092;51.924;21.448;2024-02-15T12:15:02;15.95;;;8.55;;
45356;SDS011;31092;51.924;21.448;2024-02-15T12:17:46;17.35;;;8.02;;
45356;SDS011;31092;51.924;21.448;2024-02-15T12:20:30;15.38;;;8.57;;
45356;SDS011;31092;51.924;21.448;2024-02-15T12:22:57;13.98;;;7.90;;
45356;SDS011;31092;51.924;21.448;2024-02-15T12:25:26;12.23;;;7.65;;
45356;SDS011;31092;51.924;21.448;2024-02-15T12:27:55;14.68;;;7.65;;
45356;SDS011;31092;51.924;21.448;2024-02-15T12:30:22;18.63;;;8.43;;
45356;SDS011;31092;51.924;21.448;2024-02-15T12:32:51;15.45;;;7.80;;
45356;SDS011;31092;51.924;21.448;2024-02-15T12:35:18;15.88;;;8.30;;
45356;SDS011;31092;51.924;21.448;2024-02-15T12:40:33;21.85;;;9.70;;
45356;SDS011;31092;51.924;21.448;2024-02-15T12:42:59;14.63;;;8.77;;
45356;SDS011;31092;51.924;21.448;2024-02-15T12:45:25;13.70;;;7.80;;
45356;SDS011;31092;51.924;21.448;2024-02-15T12:47:53;14.82;;;7.93;;
45356;SDS011;31092;51.924;21.448;2024-02-15T12:50:20;15.85;;;8.30;;
45356;SDS011;31092;51.924;21.448;2024-02-15T12:52:53;14.70;;;8.55;;
45356;SDS011;31092;51.924;21.448;2024-02-15T12:55:21;17.65;;;8.57;;
45356;SDS011;31092;51.924;21.448;2024-02-15T12:57:49;14.40;;;7.82;;
45356;SDS011;31092;51.924;21.448;2024-02-15T13:00:26;14.63;;;8.07;;
45356;SDS011;31092;51.924;21.448;2024-02-15T13:02:58;15.52;;;8.57;;
45356;SDS011;31092;51.924;21.448;2024-02-15T13:05:25;12.15;;;7.40;;
45356;SDS011;31092;51.924;21.448;2024-02-15T13:07:54;16.05;;;9.18;;
45356;SDS011;31092;51.924;21.448;2024-02-15T13:10:21;18.02;;;9.80;;
45356;SDS011;31092;51.924;21.448;2024-02-15T13:12:47;16.23;;;8.93;;
45356;SDS011;31092;51.924;21.448;2024-02-15T13:15:13;18.02;;;8.73;;
45356;SDS011;31092;51.924;21.448;2024-02-15T13:17:42;13.93;;;8.55;;
45356;SDS011;31092;51.924;21.448;2024-02-15T13:20:12;16.48;;;8.43;;
45356;SDS011;31092;51.924;21.448;2024-02-15T13:22:41;15.68;;;8.95;;
45356;SDS011;31092;51.924;21.448;2024-02-15T13:25:09;14.05;;;8.23;;
45356;SDS011;31092;51.924;21.448;2024-02-15T13:27:35;14.80;;;8.85;;
45356;SDS011;31092;51.924;21.448;2024-02-15T13:30:03;16.83;;;8.77;;
45356;SDS011;31092;51.924;21.448;2024-02-15T13:32:33;11.85;;;8.18;;
45356;SDS011;31092;51.924;21.448;2024-02-15T13:35:06;19.60;;;8.27;;
45356;SDS011;31092;51.924;21.448;2024-02-15T13:37:55;15.55;;;9.18;;
45356;SDS011;31092;51.924;21.448;2024-02-15T13:40:25;21.00;;;8.95;;
45356;SDS011;31092;51.924;21.448;2024-02-15T13:42:53;15.77;;;8.57;;
45356;SDS011;31092;51.924;21.448;2024-02-15T13:45:39;16.63;;;9.18;;
45356;SDS011;31092;51.924;21.448;2024-02-15T13:48:06;12.45;;;8.10;;
45356;SDS011;31092;51.924;21.448;2024-02-15T13:50:32;15.18;;;9.38;;
45356;SDS011;31092;51.924;21.448;2024-02-15T13:52:58;11.95;;;7.93;;
45356;SDS011;31092;51.924;21.448;2024-02-15T13:55:24;13.82;;;7.93;;
45356;SDS011;31092;51.924;21.448;2024-02-15T13:57:50;15.52;;;8.60;;
45356;SDS011;31092;51.924;21.448;2024-02-15T14:00:18;16.80;;;9.35;;
45356;SDS011;31092;51.924;21.448;2024-02-15T14:02:51;18.30;;;9.05;;
45356;SDS011;31092;51.924;21.448;2024-02-15T14:05:18;15.60;;;8.18;;
45356;SDS011;31092;51.924;21.448;2024-02-15T14:07:50;15.75;;;8.27;;
45356;SDS011;31092;51.924;21.448;2024-02-15T14:10:20;16.48;;;8.27;;
45356;SDS011;31092;51.924;21.448;2024-02-15T14:12:47;18.48;;;8.45;;
45356;SDS011;31092;51.924;21.448;2024-02-15T14:15:14;14.02;;;8.30;;
45356;SDS011;31092;51.924;21.448;2024-02-15T14:17:42;17.95;;;9.13;;
45356;SDS011;31092;51.924;21.448;2024-02-15T14:20:09;20.40;;;10.15;;
45356;SDS011;31092;51.924;21.448;2024-02-15T14:22:39;16.50;;;8.35;;
45356;SDS011;31092;51.924;21.448;2024-02-15T14:25:09;15.68;;;8.07;;
45356;SDS011;31092;51.924;21.448;2024-02-15T14:27:37;13.25;;;7.57;;
45356;SDS011;31092;51.924;21.448;2024-02-15T14:30:04;14.35;;;7.57;;
45356;SDS011;31092;51.924;21.448;2024-02-15T14:32:48;14.07;;;8.65;;
45356;SDS011;31092;51.924;21.448;2024-02-15T14:35:32;13.03;;;8.60;;
45356;SDS011;31092;51.924;21.448;2024-02-15T14:38:05;14.80;;;8.65;;
45356;SDS011;31092;51.924;21.448;2024-02-15T14:40:36;13.15;;;8.10;;
45356;SDS011;31092;51.924;21.448;2024-02-15T14:43:05;14.52;;;8.55;;
45356;SDS011;31092;51.924;21.448;2024-02-15T14:45:39;16.02;;;8.68;;
45356;SDS011;31092;51.924;21.448;2024-02-15T14:48:08;18.10;;;8.73;;
45356;SDS011;31092;51.924;21.448;2024-02-15T14:50:35;12.13;;;7.57;;
45356;SDS011;31092;51.924;21.448;2024-02-15T14:53:01;15.02;;;7.85;;
45356;SDS011;31092;51.924;21.448;2024-02-15T14:55:26;13.20;;;7.78;;
45356;SDS011;31092;51.924;21.448;2024-02-15T14:57:54;12.60;;;7.38;;
45356;SDS011;31092;51.924;21.448;2024-02-15T15:00:19;11.27;;;7.57;;
45356;SDS011;31092;51.924;21.448;2024-02-15T15:02:47;16.77;;;7.72;;